sensor_id;sensor_type;location;lat;lon;timestamp;temperature;humidity
63966;DHT22;50151;52.030;5.350;2023-05-27T00:01:11;11.10;99.90
63966;DHT22;50151;52.030;5.350;2023-05-27T00:03:39;11.10;99.90
63966;DHT22;50151;52.030;5.350;2023-05-27T00:06:07;11.10;99.90
63966;DHT22;50151;52.030;5.350;2023-05-27T00:08:33;11.10;99.90
63966;DHT22;50151;52.030;5.350;2023-05-27T00:11:00;11.00;99.90
63966;DHT22;50151;52.030;5.350;2023-05-27T00:13:27;10.90;99.90
63966;DHT22;50151;52.030;5.350;2023-05-27T00:15:54;10.80;99.90
63966;DHT22;50151;52.030;5.350;2023-05-27T00:18:21;10.70;99.90
63966;DHT22;50151;52.030;5.350;2023-05-27T00:20:48;10.80;99.90
63966;DHT22;50151;52.030;5.350;2023-05-27T00:23:15;10.80;99.90
63966;DHT22;50151;52.030;5.350;2023-05-27T00:25:41;10.80;99.90
63966;DHT22;50151;52.030;5.350;2023-05-27T00:28:08;10.80;99.90
63966;DHT22;50151;52.030;5.350;2023-05-27T00:30:35;10.60;99.90
63966;DHT22;50151;52.030;5.350;2023-05-27T00:33:02;10.60;99.90
63966;DHT22;50151;52.030;5.350;2023-05-27T00:35:29;10.60;99.90
63966;DHT22;50151;52.030;5.350;2023-05-27T00:37:55;10.60;99.90
63966;DHT22;50151;52.030;5.350;2023-05-27T00:40:23;10.60;99.90
63966;DHT22;50151;52.030;5.350;2023-05-27T00:42:51;10.50;99.90
63966;DHT22;50151;52.030;5.350;2023-05-27T00:45:17;10.50;99.90
63966;DHT22;50151;52.030;5.350;2023-05-27T00:47:44;10.40;99.90
63966;DHT22;50151;52.030;5.350;2023-05-27T00:50:11;10.40;99.90
63966;DHT22;50151;52.030;5.350;2023-05-27T00:52:38;10.30;99.90
63966;DHT22;50151;52.030;5.350;2023-05-27T00:55:06;10.40;99.90
63966;DHT22;50151;52.030;5.350;2023-05-27T00:57:33;10.30;99.90
63966;DHT22;50151;52.030;5.350;2023-05-27T01:00:00;10.20;99.90
63966;DHT22;50151;52.030;5.350;2023-05-27T01:02:26;10.30;99.90
63966;DHT22;50151;52.030;5.350;2023-05-27T01:04:53;10.30;99.90
63966;DHT22;50151;52.030;5.350;2023-05-27T01:07:36;10.20;99.90
63966;DHT22;50151;52.030;5.350;2023-05-27T01:10:28;10.20;99.90
63966;DHT22;50151;52.030;5.350;2023-05-27T01:15:38;10.10;99.90
63966;DHT22;50151;52.030;5.350;2023-05-27T01:18:06;10.10;99.90
63966;DHT22;50151;52.030;5.350;2023-05-27T01:20:36;10.10;99.90
63966;DHT22;50151;52.030;5.350;2023-05-27T01:23:11;10.00;99.90
63966;DHT22;50151;52.030;5.350;2023-05-27T01:25:37;9.90;99.90
63966;DHT22;50151;52.030;5.350;2023-05-27T01:28:04;10.00;99.90
63966;DHT22;50151;52.030;5.350;2023-05-27T01:30:31;9.90;99.90
63966;DHT22;50151;52.030;5.350;2023-05-27T01:35:34;9.90;99.90
63966;DHT22;50151;52.030;5.350;2023-05-27T01:38:05;9.80;99.90
63966;DHT22;50151;52.030;5.350;2023-05-27T01:40:33;9.80;99.90
63966;DHT22;50151;52.030;5.350;2023-05-27T01:43:01;9.80;99.90
63966;DHT22;50151;52.030;5.350;2023-05-27T01:45:28;9.80;99.90
63966;DHT22;50151;52.030;5.350;2023-05-27T01:47:55;9.70;99.90
63966;DHT22;50151;52.030;5.350;2023-05-27T01:50:21;9.70;99.90
63966;DHT22;50151;52.030;5.350;2023-05-27T01:52:48;9.70;99.90
63966;DHT22;50151;52.030;5.350;2023-05-27T01:55:15;9.70;99.90
63966;DHT22;50151;52.030;5.350;2023-05-27T01:57:44;9.70;99.90
63966;DHT22;50151;52.030;5.350;2023-05-27T02:00:11;9.70;99.90
63966;DHT22;50151;52.030;5.350;2023-05-27T02:02:38;9.70;99.90
63966;DHT22;50151;52.030;5.350;2023-05-27T02:05:05;9.60;99.90
63966;DHT22;50151;52.030;5.350;2023-05-27T02:07:32;9.60;99.90
63966;DHT22;50151;52.030;5.350;2023-05-27T02:09:58;9.60;99.90
63966;DHT22;50151;52.030;5.350;2023-05-27T02:12:25;9.60;99.90
63966;DHT22;50151;52.030;5.350;2023-05-27T02:14:52;9.60;99.90
63966;DHT22;50151;52.030;5.350;2023-05-27T02:17:18;9.60;99.90
63966;DHT22;50151;52.030;5.350;2023-05-27T02:19:45;9.50;99.90
63966;DHT22;50151;52.030;5.350;2023-05-27T02:22:13;9.50;99.90
63966;DHT22;50151;52.030;5.350;2023-05-27T02:24:39;9.50;99.90
63966;DHT22;50151;52.030;5.350;2023-05-27T02:27:06;9.40;99.90
63966;DHT22;50151;52.030;5.350;2023-05-27T02:29:33;9.40;99.90
63966;DHT22;50151;52.030;5.350;2023-05-27T02:32:00;9.40;99.90
63966;DHT22;50151;52.030;5.350;2023-05-27T02:34:26;9.40;99.90
63966;DHT22;50151;52.030;5.350;2023-05-27T02:36:53;9.30;99.90
63966;DHT22;50151;52.030;5.350;2023-05-27T02:39:20;9.30;99.90
63966;DHT22;50151;52.030;5.350;2023-05-27T02:41:47;9.30;99.90
63966;DHT22;50151;52.030;5.350;2023-05-27T02:44:14;9.30;99.90
63966;DHT22;50151;52.030;5.350;2023-05-27T02:46:40;9.20;99.90
63966;DHT22;50151;52.030;5.350;2023-05-27T02:49:07;9.10;99.90
63966;DHT22;50151;52.030;5.350;2023-05-27T02:51:34;9.10;99.90
63966;DHT22;50151;52.030;5.350;2023-05-27T02:54:01;9.10;99.90
63966;DHT22;50151;52.030;5.350;2023-05-27T02:56:29;9.10;99.90
63966;DHT22;50151;52.030;5.350;2023-05-27T02:58:55;9.00;99.90
63966;DHT22;50151;52.030;5.350;2023-05-27T03:01:22;9.00;99.90
63966;DHT22;50151;52.030;5.350;2023-05-27T03:03:49;8.90;99.90
63966;DHT22;50151;52.030;5.350;2023-05-27T03:06:16;8.90;99.90
63966;DHT22;50151;52.030;5.350;2023-05-27T03:08:42;8.80;99.90
63966;DHT22;50151;52.030;5.350;2023-05-27T03:11:09;8.80;99.90
63966;DHT22;50151;52.030;5.350;2023-05-27T03:13:36;8.80;99.90
63966;DHT22;50151;52.030;5.350;2023-05-27T03:16:03;8.70;99.90
63966;DHT22;50151;52.030;5.350;2023-05-27T03:18:30;8.80;99.90
63966;DHT22;50151;52.030;5.350;2023-05-27T03:20:56;8.70;99.90
63966;DHT22;50151;52.030;5.350;2023-05-27T03:23:23;8.70;99.90
63966;DHT22;50151;52.030;5.350;2023-05-27T03:25:50;8.70;99.90
63966;DHT22;50151;52.030;5.350;2023-05-27T03:28:17;8.60;99.90
63966;DHT22;50151;52.030;5.350;2023-05-27T03:30:43;8.60;99.90
63966;DHT22;50151;52.030;5.350;2023-05-27T03:33:10;8.50;99.90
63966;DHT22;50151;52.030;5.350;2023-05-27T03:35:37;8.50;99.90
63966;DHT22;50151;52.030;5.350;2023-05-27T03:38:04;8.50;99.90
63966;DHT22;50151;52.030;5.350;2023-05-27T03:40:31;8.40;99.90
63966;DHT22;50151;52.030;5.350;2023-05-27T03:42:58;8.40;99.90
63966;DHT22;50151;52.030;5.350;2023-05-27T03:45:24;8.40;99.90
63966;DHT22;50151;52.030;5.350;2023-05-27T03:47:51;8.40;99.90
63966;DHT22;50151;52.030;5.350;2023-05-27T03:50:18;8.40;99.90
63966;DHT22;50151;52.030;5.350;2023-05-27T03:52:45;8.40;99.90
63966;DHT22;50151;52.030;5.350;2023-05-27T03:55:12;8.40;99.90
63966;DHT22;50151;52.030;5.350;2023-05-27T03:57:39;8.30;99.90
63966;DHT22;50151;52.030;5.350;2023-05-27T04:00:06;8.30;99.90
63966;DHT22;50151;52.030;5.350;2023-05-27T04:02:34;8.40;99.90
63966;DHT22;50151;52.030;5.350;2023-05-27T04:05:01;8.30;99.90
63966;DHT22;50151;52.030;5.350;2023-05-27T04:07:31;8.30;99.90
63966;DHT22;50151;52.030;5.350;2023-05-27T04:09:58;8.40;99.90
63966;DHT22;50151;52.030;5.350;2023-05-27T04:12:24;8.30;99.90
63966;DHT22;50151;52.030;5.350;2023-05-27T04:14:51;8.30;99.90
63966;DHT22;50151;52.030;5.350;2023-05-27T04:17:18;8.30;99.90
63966;DHT22;50151;52.030;5.350;2023-05-27T04:19:45;8.30;99.90
63966;DHT22;50151;52.030;5.350;2023-05-27T04:22:15;8.30;99.90
63966;DHT22;50151;52.030;5.350;2023-05-27T04:24:42;8.30;99.90
63966;DHT22;50151;52.030;5.350;2023-05-27T04:27:09;8.40;99.90
63966;DHT22;50151;52.030;5.350;2023-05-27T04:29:36;8.40;99.90
63966;DHT22;50151;52.030;5.350;2023-05-27T04:32:05;8.40;99.90
63966;DHT22;50151;52.030;5.350;2023-05-27T04:34:32;8.40;99.90
63966;DHT22;50151;52.030;5.350;2023-05-27T04:36:59;8.30;99.90
63966;DHT22;50151;52.030;5.350;2023-05-27T04:39:27;8.40;99.90
63966;DHT22;50151;52.030;5.350;2023-05-27T04:41:54;8.50;99.90
63966;DHT22;50151;52.030;5.350;2023-05-27T04:44:23;8.40;99.90
63966;DHT22;50151;52.030;5.350;2023-05-27T04:46:53;8.50;99.90
63966;DHT22;50151;52.030;5.350;2023-05-27T04:49:21;8.50;99.90
63966;DHT22;50151;52.030;5.350;2023-05-27T04:51:49;8.50;99.90
63966;DHT22;50151;52.030;5.350;2023-05-27T04:54:15;8.60;99.90
63966;DHT22;50151;52.030;5.350;2023-05-27T04:56:42;8.60;99.90
63966;DHT22;50151;52.030;5.350;2023-05-27T04:59:10;8.50;99.90
63966;DHT22;50151;52.030;5.350;2023-05-27T05:01:43;8.60;99.90
63966;DHT22;50151;52.030;5.350;2023-05-27T05:04:36;8.70;99.90
63966;DHT22;50151;52.030;5.350;2023-05-27T05:07:04;8.70;99.90
63966;DHT22;50151;52.030;5.350;2023-05-27T05:09:31;8.70;99.90
63966;DHT22;50151;52.030;5.350;2023-05-27T05:11:57;8.80;99.90
63966;DHT22;50151;52.030;5.350;2023-05-27T05:14:24;8.80;99.90
63966;DHT22;50151;52.030;5.350;2023-05-27T05:16:51;8.90;99.90
63966;DHT22;50151;52.030;5.350;2023-05-27T05:19:17;8.90;99.90
63966;DHT22;50151;52.030;5.350;2023-05-27T05:21:44;9.00;99.90
63966;DHT22;50151;52.030;5.350;2023-05-27T05:24:11;9.00;99.90
63966;DHT22;50151;52.030;5.350;2023-05-27T05:26:38;9.10;99.90
63966;DHT22;50151;52.030;5.350;2023-05-27T05:29:04;9.20;99.90
63966;DHT22;50151;52.030;5.350;2023-05-27T05:31:31;9.10;99.90
63966;DHT22;50151;52.030;5.350;2023-05-27T05:33:58;9.20;99.90
63966;DHT22;50151;52.030;5.350;2023-05-27T05:36:24;9.30;99.90
63966;DHT22;50151;52.030;5.350;2023-05-27T05:38:51;9.40;99.90
63966;DHT22;50151;52.030;5.350;2023-05-27T05:41:18;9.40;99.90
63966;DHT22;50151;52.030;5.350;2023-05-27T05:43:44;9.50;99.90
63966;DHT22;50151;52.030;5.350;2023-05-27T05:46:11;9.50;99.90
63966;DHT22;50151;52.030;5.350;2023-05-27T05:48:38;9.50;99.90
63966;DHT22;50151;52.030;5.350;2023-05-27T05:51:04;9.60;99.90
63966;DHT22;50151;52.030;5.350;2023-05-27T05:53:32;9.60;99.90
63966;DHT22;50151;52.030;5.350;2023-05-27T05:55:59;9.70;99.90
63966;DHT22;50151;52.030;5.350;2023-05-27T05:58:25;9.80;99.90
63966;DHT22;50151;52.030;5.350;2023-05-27T06:00:52;9.90;99.90
63966;DHT22;50151;52.030;5.350;2023-05-27T06:03:19;10.00;99.90
63966;DHT22;50151;52.030;5.350;2023-05-27T06:05:46;10.10;99.90
63966;DHT22;50151;52.030;5.350;2023-05-27T06:08:13;10.10;99.90
63966;DHT22;50151;52.030;5.350;2023-05-27T06:10:39;10.20;99.90
63966;DHT22;50151;52.030;5.350;2023-05-27T06:13:06;10.30;99.90
63966;DHT22;50151;52.030;5.350;2023-05-27T06:15:33;10.40;99.90
63966;DHT22;50151;52.030;5.350;2023-05-27T06:17:59;10.40;99.90
63966;DHT22;50151;52.030;5.350;2023-05-27T06:20:26;10.40;99.90
63966;DHT22;50151;52.030;5.350;2023-05-27T06:22:53;10.50;99.90
63966;DHT22;50151;52.030;5.350;2023-05-27T06:25:20;10.60;99.90
63966;DHT22;50151;52.030;5.350;2023-05-27T06:27:47;10.70;99.90
63966;DHT22;50151;52.030;5.350;2023-05-27T06:30:13;10.70;99.90
63966;DHT22;50151;52.030;5.350;2023-05-27T06:32:40;10.90;99.90
63966;DHT22;50151;52.030;5.350;2023-05-27T06:35:07;10.80;99.90
63966;DHT22;50151;52.030;5.350;2023-05-27T06:37:34;10.90;99.90
63966;DHT22;50151;52.030;5.350;2023-05-27T06:40:00;11.10;99.90
63966;DHT22;50151;52.030;5.350;2023-05-27T06:42:27;11.00;99.90
63966;DHT22;50151;52.030;5.350;2023-05-27T06:44:54;11.10;99.90
63966;DHT22;50151;52.030;5.350;2023-05-27T06:47:21;11.30;99.90
63966;DHT22;50151;52.030;5.350;2023-05-27T06:49:47;11.30;99.90
63966;DHT22;50151;52.030;5.350;2023-05-27T06:52:14;11.40;99.90
63966;DHT22;50151;52.030;5.350;2023-05-27T06:54:41;11.50;99.90
63966;DHT22;50151;52.030;5.350;2023-05-27T06:57:08;11.60;99.90
63966;DHT22;50151;52.030;5.350;2023-05-27T06:59:34;11.70;99.90
63966;DHT22;50151;52.030;5.350;2023-05-27T07:02:01;11.80;99.90
63966;DHT22;50151;52.030;5.350;2023-05-27T07:04:28;11.70;99.90
63966;DHT22;50151;52.030;5.350;2023-05-27T07:06:54;12.00;99.90
63966;DHT22;50151;52.030;5.350;2023-05-27T07:09:21;12.00;99.90
63966;DHT22;50151;52.030;5.350;2023-05-27T07:11:48;12.10;99.90
63966;DHT22;50151;52.030;5.350;2023-05-27T07:14:15;12.20;99.90
63966;DHT22;50151;52.030;5.350;2023-05-27T07:16:42;12.30;99.90
63966;DHT22;50151;52.030;5.350;2023-05-27T07:19:08;12.40;99.90
63966;DHT22;50151;52.030;5.350;2023-05-27T07:21:35;12.40;99.90
63966;DHT22;50151;52.030;5.350;2023-05-27T07:24:03;12.60;99.90
63966;DHT22;50151;52.030;5.350;2023-05-27T07:26:33;12.90;99.90
63966;DHT22;50151;52.030;5.350;2023-05-27T07:29:00;12.90;99.90
63966;DHT22;50151;52.030;5.350;2023-05-27T07:31:28;13.00;99.90
63966;DHT22;50151;52.030;5.350;2023-05-27T07:33:55;13.10;99.90
63966;DHT22;50151;52.030;5.350;2023-05-27T07:36:22;13.20;99.90
63966;DHT22;50151;52.030;5.350;2023-05-27T07:38:49;13.40;99.90
63966;DHT22;50151;52.030;5.350;2023-05-27T07:41:16;13.40;99.90
63966;DHT22;50151;52.030;5.350;2023-05-27T07:43:43;13.60;99.90
63966;DHT22;50151;52.030;5.350;2023-05-27T07:46:11;13.60;99.90
63966;DHT22;50151;52.030;5.350;2023-05-27T07:48:38;13.70;99.90
63966;DHT22;50151;52.030;5.350;2023-05-27T07:51:05;13.90;99.90
63966;DHT22;50151;52.030;5.350;2023-05-27T07:53:32;13.80;99.90
63966;DHT22;50151;52.030;5.350;2023-05-27T07:55:58;14.00;99.90
63966;DHT22;50151;52.030;5.350;2023-05-27T07:58:28;14.00;99.90
63966;DHT22;50151;52.030;5.350;2023-05-27T08:00:55;14.10;99.90
63966;DHT22;50151;52.030;5.350;2023-05-27T08:03:26;14.20;99.90
63966;DHT22;50151;52.030;5.350;2023-05-27T08:05:55;14.20;99.90
63966;DHT22;50151;52.030;5.350;2023-05-27T08:08:23;14.30;99.90
63966;DHT22;50151;52.030;5.350;2023-05-27T08:10:49;14.40;99.90
63966;DHT22;50151;52.030;5.350;2023-05-27T08:13:18;14.40;99.90
63966;DHT22;50151;52.030;5.350;2023-05-27T08:15:45;14.50;99.90
63966;DHT22;50151;52.030;5.350;2023-05-27T08:18:13;14.70;99.90
63966;DHT22;50151;52.030;5.350;2023-05-27T08:20:40;14.70;99.90
63966;DHT22;50151;52.030;5.350;2023-05-27T08:23:07;14.70;99.90
63966;DHT22;50151;52.030;5.350;2023-05-27T08:25:35;14.80;99.90
63966;DHT22;50151;52.030;5.350;2023-05-27T08:28:02;14.90;99.90
63966;DHT22;50151;52.030;5.350;2023-05-27T08:30:30;15.00;99.90
63966;DHT22;50151;52.030;5.350;2023-05-27T08:32:57;15.10;99.90
63966;DHT22;50151;52.030;5.350;2023-05-27T08:35:25;15.00;99.90
63966;DHT22;50151;52.030;5.350;2023-05-27T08:37:52;15.20;94.40
63966;DHT22;50151;52.030;5.350;2023-05-27T08:40:19;15.20;99.90
63966;DHT22;50151;52.030;5.350;2023-05-27T08:42:47;15.20;99.90
63966;DHT22;50151;52.030;5.350;2023-05-27T08:45:15;15.30;99.90
63966;DHT22;50151;52.030;5.350;2023-05-27T08:47:42;15.20;99.90
63966;DHT22;50151;52.030;5.350;2023-05-27T08:50:09;15.30;99.90
63966;DHT22;50151;52.030;5.350;2023-05-27T08:52:54;15.50;99.90
63966;DHT22;50151;52.030;5.350;2023-05-27T08:55:22;15.70;99.90
63966;DHT22;50151;52.030;5.350;2023-05-27T08:57:57;15.90;99.90
63966;DHT22;50151;52.030;5.350;2023-05-27T09:00:25;15.90;99.90
63966;DHT22;50151;52.030;5.350;2023-05-27T09:02:55;16.00;99.90
63966;DHT22;50151;52.030;5.350;2023-05-27T09:05:23;16.20;99.90
63966;DHT22;50151;52.030;5.350;2023-05-27T09:07:50;16.20;99.90
63966;DHT22;50151;52.030;5.350;2023-05-27T09:10:17;16.30;99.90
63966;DHT22;50151;52.030;5.350;2023-05-27T09:12:44;16.50;99.90
63966;DHT22;50151;52.030;5.350;2023-05-27T09:15:12;16.50;99.90
63966;DHT22;50151;52.030;5.350;2023-05-27T09:17:41;16.60;99.90
63966;DHT22;50151;52.030;5.350;2023-05-27T09:20:09;16.60;99.90
63966;DHT22;50151;52.030;5.350;2023-05-27T09:22:38;16.60;99.90
63966;DHT22;50151;52.030;5.350;2023-05-27T09:25:06;16.90;99.90
63966;DHT22;50151;52.030;5.350;2023-05-27T09:27:33;16.80;99.90
63966;DHT22;50151;52.030;5.350;2023-05-27T09:30:09;16.90;99.90
63966;DHT22;50151;52.030;5.350;2023-05-27T09:32:36;17.20;99.90
63966;DHT22;50151;52.030;5.350;2023-05-27T09:35:05;17.20;99.90
63966;DHT22;50151;52.030;5.350;2023-05-27T09:37:34;17.30;99.90
63966;DHT22;50151;52.030;5.350;2023-05-27T09:40:09;17.30;99.90
63966;DHT22;50151;52.030;5.350;2023-05-27T09:45:09;17.50;99.90
63966;DHT22;50151;52.030;5.350;2023-05-27T09:47:40;17.40;99.90
63966;DHT22;50151;52.030;5.350;2023-05-27T09:50:08;17.70;99.90
63966;DHT22;50151;52.030;5.350;2023-05-27T09:52:40;17.90;99.90
63966;DHT22;50151;52.030;5.350;2023-05-27T09:55:16;18.00;99.90
63966;DHT22;50151;52.030;5.350;2023-05-27T09:57:44;18.10;99.90
63966;DHT22;50151;52.030;5.350;2023-05-27T10:00:12;18.00;99.90
63966;DHT22;50151;52.030;5.350;2023-05-27T10:02:44;18.00;99.90
63966;DHT22;50151;52.030;5.350;2023-05-27T10:05:13;18.20;99.90
63966;DHT22;50151;52.030;5.350;2023-05-27T10:07:44;18.40;99.90
63966;DHT22;50151;52.030;5.350;2023-05-27T10:10:32;18.10;99.90
63966;DHT22;50151;52.030;5.350;2023-05-27T10:12:59;18.40;99.90
63966;DHT22;50151;52.030;5.350;2023-05-27T10:15:31;18.60;99.90
63966;DHT22;50151;52.030;5.350;2023-05-27T10:18:06;18.80;99.90
63966;DHT22;50151;52.030;5.350;2023-05-27T10:20:36;19.00;99.90
63966;DHT22;50151;52.030;5.350;2023-05-27T10:23:21;18.80;99.90
63966;DHT22;50151;52.030;5.350;2023-05-27T10:26:08;19.00;99.90
63966;DHT22;50151;52.030;5.350;2023-05-27T10:28:36;19.10;99.90
63966;DHT22;50151;52.030;5.350;2023-05-27T10:31:09;19.40;99.90
63966;DHT22;50151;52.030;5.350;2023-05-27T10:33:42;19.30;99.90
63966;DHT22;50151;52.030;5.350;2023-05-27T10:36:21;19.50;99.90
63966;DHT22;50151;52.030;5.350;2023-05-27T10:39:15;19.70;99.90
63966;DHT22;50151;52.030;5.350;2023-05-27T10:41:48;19.60;99.90
63966;DHT22;50151;52.030;5.350;2023-05-27T10:44:29;19.70;99.90
63966;DHT22;50151;52.030;5.350;2023-05-27T10:47:03;19.90;99.90
63966;DHT22;50151;52.030;5.350;2023-05-27T10:49:34;19.70;99.90
63966;DHT22;50151;52.030;5.350;2023-05-27T10:52:10;20.00;99.90
63966;DHT22;50151;52.030;5.350;2023-05-27T10:54:40;20.10;99.90
63966;DHT22;50151;52.030;5.350;2023-05-27T10:57:07;20.30;99.90
63966;DHT22;50151;52.030;5.350;2023-05-27T10:59:53;20.60;99.90
63966;DHT22;50151;52.030;5.350;2023-05-27T11:02:29;20.60;99.90
63966;DHT22;50151;52.030;5.350;2023-05-27T11:04:58;20.80;99.90
63966;DHT22;50151;52.030;5.350;2023-05-27T11:07:25;20.90;99.90
63966;DHT22;50151;52.030;5.350;2023-05-27T11:09:53;20.90;99.90
63966;DHT22;50151;52.030;5.350;2023-05-27T11:12:22;20.80;99.90
63966;DHT22;50151;52.030;5.350;2023-05-27T11:14:53;20.80;99.90
63966;DHT22;50151;52.030;5.350;2023-05-27T11:17:20;21.00;99.90
63966;DHT22;50151;52.030;5.350;2023-05-27T11:19:51;21.00;99.90
63966;DHT22;50151;52.030;5.350;2023-05-27T11:22:19;21.10;99.90
63966;DHT22;50151;52.030;5.350;2023-05-27T11:25:02;21.30;99.90
63966;DHT22;50151;52.030;5.350;2023-05-27T11:27:34;21.50;99.90
63966;DHT22;50151;52.030;5.350;2023-05-27T11:30:12;21.30;99.90
63966;DHT22;50151;52.030;5.350;2023-05-27T11:32:41;21.30;99.90
63966;DHT22;50151;52.030;5.350;2023-05-27T11:35:17;21.40;99.90
63966;DHT22;50151;52.030;5.350;2023-05-27T11:37:50;21.80;99.90
63966;DHT22;50151;52.030;5.350;2023-05-27T11:40:18;21.90;99.90
63966;DHT22;50151;52.030;5.350;2023-05-27T11:42:45;22.10;99.90
63966;DHT22;50151;52.030;5.350;2023-05-27T11:45:20;22.40;99.90
63966;DHT22;50151;52.030;5.350;2023-05-27T11:47:48;22.50;99.90
63966;DHT22;50151;52.030;5.350;2023-05-27T11:50:19;22.20;99.90
63966;DHT22;50151;52.030;5.350;2023-05-27T11:52:51;22.40;99.90
63966;DHT22;50151;52.030;5.350;2023-05-27T11:55:18;22.20;99.90
63966;DHT22;50151;52.030;5.350;2023-05-27T11:57:45;22.30;99.90
63966;DHT22;50151;52.030;5.350;2023-05-27T12:00:14;22.60;99.90
63966;DHT22;50151;52.030;5.350;2023-05-27T12:02:41;22.80;99.90
63966;DHT22;50151;52.030;5.350;2023-05-27T12:05:09;22.90;99.90
63966;DHT22;50151;52.030;5.350;2023-05-27T12:07:52;23.00;99.90
63966;DHT22;50151;52.030;5.350;2023-05-27T12:10:27;23.20;99.90
63966;DHT22;50151;52.030;5.350;2023-05-27T12:13:05;22.80;99.90
63966;DHT22;50151;52.030;5.350;2023-05-27T12:15:33;22.90;99.90
63966;DHT22;50151;52.030;5.350;2023-05-27T12:18:00;23.30;99.90
63966;DHT22;50151;52.030;5.350;2023-05-27T12:20:26;23.40;99.90
63966;DHT22;50151;52.030;5.350;2023-05-27T12:22:56;23.40;99.90
63966;DHT22;50151;52.030;5.350;2023-05-27T12:25:23;23.10;99.90
63966;DHT22;50151;52.030;5.350;2023-05-27T12:27:53;23.10;99.90
63966;DHT22;50151;52.030;5.350;2023-05-27T12:30:25;23.50;99.90
63966;DHT22;50151;52.030;5.350;2023-05-27T12:32:52;23.80;99.90
63966;DHT22;50151;52.030;5.350;2023-05-27T12:35:20;23.90;99.90
63966;DHT22;50151;52.030;5.350;2023-05-27T12:37:47;23.90;99.90
63966;DHT22;50151;52.030;5.350;2023-05-27T12:40:13;23.90;99.90
63966;DHT22;50151;52.030;5.350;2023-05-27T12:42:41;23.90;99.90
63966;DHT22;50151;52.030;5.350;2023-05-27T12:45:09;24.00;99.90
63966;DHT22;50151;52.030;5.350;2023-05-27T12:47:37;24.00;99.90
63966;DHT22;50151;52.030;5.350;2023-05-27T12:50:04;24.20;99.90
63966;DHT22;50151;52.030;5.350;2023-05-27T12:52:32;24.40;99.90
63966;DHT22;50151;52.030;5.350;2023-05-27T12:54:59;24.60;99.90
63966;DHT22;50151;52.030;5.350;2023-05-27T12:57:27;24.60;99.90
63966;DHT22;50151;52.030;5.350;2023-05-27T12:59:54;24.80;99.90
63966;DHT22;50151;52.030;5.350;2023-05-27T13:02:20;24.90;99.90
63966;DHT22;50151;52.030;5.350;2023-05-27T13:04:47;25.20;99.90
63966;DHT22;50151;52.030;5.350;2023-05-27T13:07:14;25.20;99.90
63966;DHT22;50151;52.030;5.350;2023-05-27T13:09:42;25.00;99.90
63966;DHT22;50151;52.030;5.350;2023-05-27T13:12:08;25.60;99.90
63966;DHT22;50151;52.030;5.350;2023-05-27T13:14:35;25.70;99.90
63966;DHT22;50151;52.030;5.350;2023-05-27T13:17:03;25.60;99.90
63966;DHT22;50151;52.030;5.350;2023-05-27T13:19:30;25.70;99.90
63966;DHT22;50151;52.030;5.350;2023-05-27T13:21:57;25.40;99.90
63966;DHT22;50151;52.030;5.350;2023-05-27T13:24:24;25.40;99.90
63966;DHT22;50151;52.030;5.350;2023-05-27T13:26:51;25.90;99.90
63966;DHT22;50151;52.030;5.350;2023-05-27T13:29:18;26.00;99.90
63966;DHT22;50151;52.030;5.350;2023-05-27T13:31:45;26.60;99.90
63966;DHT22;50151;52.030;5.350;2023-05-27T13:34:12;26.90;99.90
63966;DHT22;50151;52.030;5.350;2023-05-27T13:36:39;26.30;99.90
63966;DHT22;50151;52.030;5.350;2023-05-27T13:39:06;26.60;99.90
63966;DHT22;50151;52.030;5.350;2023-05-27T13:41:33;26.70;99.90
63966;DHT22;50151;52.030;5.350;2023-05-27T13:44:00;26.80;99.90
63966;DHT22;50151;52.030;5.350;2023-05-27T13:46:26;27.30;99.90
63966;DHT22;50151;52.030;5.350;2023-05-27T13:48:53;27.00;99.90
63966;DHT22;50151;52.030;5.350;2023-05-27T13:51:20;26.90;99.90
63966;DHT22;50151;52.030;5.350;2023-05-27T13:53:47;27.40;99.90
63966;DHT22;50151;52.030;5.350;2023-05-27T13:56:15;27.40;99.90
63966;DHT22;50151;52.030;5.350;2023-05-27T13:58:42;27.50;99.90
63966;DHT22;50151;52.030;5.350;2023-05-27T14:01:09;27.30;99.90
63966;DHT22;50151;52.030;5.350;2023-05-27T14:03:36;27.90;99.90
63966;DHT22;50151;52.030;5.350;2023-05-27T14:06:03;27.80;99.90
63966;DHT22;50151;52.030;5.350;2023-05-27T14:08:30;27.40;99.90
63966;DHT22;50151;52.030;5.350;2023-05-27T14:10:57;27.30;99.90
63966;DHT22;50151;52.030;5.350;2023-05-27T14:13:24;27.40;99.90
63966;DHT22;50151;52.030;5.350;2023-05-27T14:15:51;27.50;99.90
63966;DHT22;50151;52.030;5.350;2023-05-27T14:18:19;27.40;99.90
63966;DHT22;50151;52.030;5.350;2023-05-27T14:20:46;27.60;99.90
63966;DHT22;50151;52.030;5.350;2023-05-27T14:23:13;27.20;99.90
63966;DHT22;50151;52.030;5.350;2023-05-27T14:25:43;27.40;99.90
63966;DHT22;50151;52.030;5.350;2023-05-27T14:28:09;27.90;99.90
63966;DHT22;50151;52.030;5.350;2023-05-27T14:30:37;27.80;99.90
63966;DHT22;50151;52.030;5.350;2023-05-27T14:33:08;27.90;99.90
63966;DHT22;50151;52.030;5.350;2023-05-27T14:35:36;27.70;99.90
63966;DHT22;50151;52.030;5.350;2023-05-27T14:38:03;28.00;99.90
63966;DHT22;50151;52.030;5.350;2023-05-27T14:40:31;28.10;99.90
63966;DHT22;50151;52.030;5.350;2023-05-27T14:42:57;27.80;99.90
63966;DHT22;50151;52.030;5.350;2023-05-27T14:45:24;27.60;99.90
63966;DHT22;50151;52.030;5.350;2023-05-27T14:47:51;27.40;99.90
63966;DHT22;50151;52.030;5.350;2023-05-27T14:50:21;27.10;99.90
63966;DHT22;50151;52.030;5.350;2023-05-27T14:52:49;26.70;99.90
63966;DHT22;50151;52.030;5.350;2023-05-27T14:55:16;26.90;99.90
63966;DHT22;50151;52.030;5.350;2023-05-27T14:57:43;26.30;99.90
63966;DHT22;50151;52.030;5.350;2023-05-27T15:00:11;26.40;99.90
63966;DHT22;50151;52.030;5.350;2023-05-27T15:02:38;26.20;99.90
63966;DHT22;50151;52.030;5.350;2023-05-27T15:05:06;26.30;99.90
63966;DHT22;50151;52.030;5.350;2023-05-27T15:07:33;26.30;99.90
63966;DHT22;50151;52.030;5.350;2023-05-27T15:10:00;26.30;99.90
63966;DHT22;50151;52.030;5.350;2023-05-27T15:12:38;25.90;99.90
63966;DHT22;50151;52.030;5.350;2023-05-27T15:15:09;26.00;99.90
63966;DHT22;50151;52.030;5.350;2023-05-27T15:17:37;26.30;99.90
63966;DHT22;50151;52.030;5.350;2023-05-27T15:20:04;26.10;99.90
63966;DHT22;50151;52.030;5.350;2023-05-27T15:22:32;26.10;99.90
63966;DHT22;50151;52.030;5.350;2023-05-27T15:24:58;26.00;99.90
63966;DHT22;50151;52.030;5.350;2023-05-27T15:27:26;26.00;99.90
63966;DHT22;50151;52.030;5.350;2023-05-27T15:29:53;25.90;99.90
63966;DHT22;50151;52.030;5.350;2023-05-27T15:32:20;25.80;99.90
63966;DHT22;50151;52.030;5.350;2023-05-27T15:34:47;26.00;99.90
63966;DHT22;50151;52.030;5.350;2023-05-27T15:37:14;25.80;99.90
63966;DHT22;50151;52.030;5.350;2023-05-27T15:39:41;25.90;99.90
63966;DHT22;50151;52.030;5.350;2023-05-27T15:42:08;25.60;99.90
63966;DHT22;50151;52.030;5.350;2023-05-27T15:44:35;25.70;99.90
63966;DHT22;50151;52.030;5.350;2023-05-27T15:47:02;25.80;99.90
63966;DHT22;50151;52.030;5.350;2023-05-27T15:49:29;25.90;99.90